Terminal Aerodrome Forecast
Issued by NWS Albany, NY

Home | Current Version | Previous Version | Text Only | Print | Product List | Glossary On
Versions: 1 2 3 4 5 6 7 8 9 10 11 12 13 14 15 16 17 18
000
FTUS41 KALY 311720
TAFGFL
TAF
KGFL 311720Z 3118/0118 30010KT P6SM SCT060
     FM312300 22005KT P6SM SKC
     FM010300 00000KT P6SM SCT050 SCT100
     FM011500 21007KT P6SM BKN050=

USA.gov is the U.S. government's official web portal to all federal, state and local government web resources and services.